sensor_id;sensor_type;location;lat;lon;timestamp;P1;durP1;ratioP1;P2;durP2;ratioP2
5277;SDS011;2662;51.194;6.614;2022-09-24T00:01:43;17.40;;;8.80;;
5277;SDS011;2662;51.194;6.614;2022-09-24T00:04:11;14.30;;;7.03;;
5277;SDS011;2662;51.194;6.614;2022-09-24T00:06:39;15.20;;;8.90;;
5277;SDS011;2662;51.194;6.614;2022-09-24T00:09:07;14.53;;;8.17;;
5277;SDS011;2662;51.194;6.614;2022-09-24T00:11:37;12.53;;;7.80;;
5277;SDS011;2662;51.194;6.614;2022-09-24T00:14:04;12.30;;;7.53;;
5277;SDS011;2662;51.194;6.614;2022-09-24T00:16:32;12.30;;;7.53;;
5277;SDS011;2662;51.194;6.614;2022-09-24T00:18:59;9.63;;;7.43;;
5277;SDS011;2662;51.194;6.614;2022-09-24T00:21:27;11.53;;;6.80;;
5277;SDS011;2662;51.194;6.614;2022-09-24T00:23:56;15.13;;;7.70;;
5277;SDS011;2662;51.194;6.614;2022-09-24T00:26:24;12.70;;;7.53;;
5277;SDS011;2662;51.194;6.614;2022-09-24T00:29:11;16.63;;;8.70;;
5277;SDS011;2662;51.194;6.614;2022-09-24T00:31:40;18.17;;;8.20;;
5277;SDS011;2662;51.194;6.614;2022-09-24T00:34:07;14.10;;;8.53;;
5277;SDS011;2662;51.194;6.614;2022-09-24T00:36:34;15.93;;;9.37;;
5277;SDS011;2662;51.194;6.614;2022-09-24T00:39:01;16.80;;;8.10;;
5277;SDS011;2662;51.194;6.614;2022-09-24T00:41:28;16.13;;;9.13;;
5277;SDS011;2662;51.194;6.614;2022-09-24T00:43:57;14.80;;;8.03;;
5277;SDS011;2662;51.194;6.614;2022-09-24T00:46:26;13.47;;;8.80;;
5277;SDS011;2662;51.194;6.614;2022-09-24T00:48:58;16.33;;;7.90;;
5277;SDS011;2662;51.194;6.614;2022-09-24T00:51:27;17.57;;;8.87;;
5277;SDS011;2662;51.194;6.614;2022-09-24T00:53:58;14.50;;;8.63;;
5277;SDS011;2662;51.194;6.614;2022-09-24T00:56:26;12.30;;;7.00;;
5277;SDS011;2662;51.194;6.614;2022-09-24T00:58:55;13.20;;;7.70;;
5277;SDS011;2662;51.194;6.614;2022-09-24T01:01:27;12.27;;;7.50;;
5277;SDS011;2662;51.194;6.614;2022-09-24T01:03:55;15.23;;;7.90;;
5277;SDS011;2662;51.194;6.614;2022-09-24T01:06:23;13.13;;;8.10;;
5277;SDS011;2662;51.194;6.614;2022-09-24T01:08:50;15.80;;;7.80;;
5277;SDS011;2662;51.194;6.614;2022-09-24T01:11:23;13.33;;;8.23;;
5277;SDS011;2662;51.194;6.614;2022-09-24T01:14:14;12.80;;;7.30;;
5277;SDS011;2662;51.194;6.614;2022-09-24T01:16:52;13.87;;;8.00;;
5277;SDS011;2662;51.194;6.614;2022-09-24T01:19:39;17.60;;;8.60;;
5277;SDS011;2662;51.194;6.614;2022-09-24T01:22:19;11.83;;;8.50;;
5277;SDS011;2662;51.194;6.614;2022-09-24T01:24:59;13.43;;;8.60;;
5277;SDS011;2662;51.194;6.614;2022-09-24T01:27:33;11.57;;;8.07;;
5277;SDS011;2662;51.194;6.614;2022-09-24T01:30:10;12.97;;;7.80;;
5277;SDS011;2662;51.194;6.614;2022-09-24T01:32:39;14.50;;;8.80;;
5277;SDS011;2662;51.194;6.614;2022-09-24T01:35:11;12.03;;;8.60;;
5277;SDS011;2662;51.194;6.614;2022-09-24T01:37:47;18.77;;;8.27;;
5277;SDS011;2662;51.194;6.614;2022-09-24T01:40:17;13.80;;;9.33;;
5277;SDS011;2662;51.194;6.614;2022-09-24T01:42:46;16.70;;;10.03;;
5277;SDS011;2662;51.194;6.614;2022-09-24T01:45:16;17.90;;;10.43;;
5277;SDS011;2662;51.194;6.614;2022-09-24T01:47:44;15.50;;;9.93;;
5277;SDS011;2662;51.194;6.614;2022-09-24T01:50:12;18.60;;;10.23;;
5277;SDS011;2662;51.194;6.614;2022-09-24T01:52:41;17.80;;;10.50;;
5277;SDS011;2662;51.194;6.614;2022-09-24T01:55:14;15.07;;;10.17;;
5277;SDS011;2662;51.194;6.614;2022-09-24T01:57:45;15.03;;;9.70;;
5277;SDS011;2662;51.194;6.614;2022-09-24T02:00:17;17.60;;;10.40;;
5277;SDS011;2662;51.194;6.614;2022-09-24T02:02:47;14.27;;;9.80;;
5277;SDS011;2662;51.194;6.614;2022-09-24T02:05:21;21.63;;;9.53;;
5277;SDS011;2662;51.194;6.614;2022-09-24T02:07:55;14.80;;;8.63;;
5277;SDS011;2662;51.194;6.614;2022-09-24T02:10:29;16.23;;;9.67;;
5277;SDS011;2662;51.194;6.614;2022-09-24T02:13:02;19.50;;;10.03;;
5277;SDS011;2662;51.194;6.614;2022-09-24T02:15:38;15.73;;;9.57;;
5277;SDS011;2662;51.194;6.614;2022-09-24T02:18:08;14.37;;;9.50;;
5277;SDS011;2662;51.194;6.614;2022-09-24T02:20:38;19.37;;;10.07;;
5277;SDS011;2662;51.194;6.614;2022-09-24T02:23:08;16.33;;;11.07;;
5277;SDS011;2662;51.194;6.614;2022-09-24T02:25:36;21.87;;;10.77;;
5277;SDS011;2662;51.194;6.614;2022-09-24T02:28:08;17.20;;;10.57;;
5277;SDS011;2662;51.194;6.614;2022-09-24T02:30:36;13.30;;;10.30;;
5277;SDS011;2662;51.194;6.614;2022-09-24T02:33:10;16.50;;;11.10;;
5277;SDS011;2662;51.194;6.614;2022-09-24T02:35:54;19.10;;;10.97;;
5277;SDS011;2662;51.194;6.614;2022-09-24T02:38:21;18.03;;;11.00;;
5277;SDS011;2662;51.194;6.614;2022-09-24T02:40:48;20.80;;;11.47;;
5277;SDS011;2662;51.194;6.614;2022-09-24T02:43:15;14.23;;;9.67;;
5277;SDS011;2662;51.194;6.614;2022-09-24T02:45:43;18.30;;;10.90;;
5277;SDS011;2662;51.194;6.614;2022-09-24T02:48:10;18.03;;;10.97;;
5277;SDS011;2662;51.194;6.614;2022-09-24T02:50:37;24.60;;;11.77;;
5277;SDS011;2662;51.194;6.614;2022-09-24T02:53:03;20.13;;;11.47;;
5277;SDS011;2662;51.194;6.614;2022-09-24T02:55:30;21.83;;;11.10;;
5277;SDS011;2662;51.194;6.614;2022-09-24T02:57:57;20.63;;;11.83;;
5277;SDS011;2662;51.194;6.614;2022-09-24T03:00:23;17.50;;;10.97;;
5277;SDS011;2662;51.194;6.614;2022-09-24T03:02:52;22.53;;;11.33;;
5277;SDS011;2662;51.194;6.614;2022-09-24T03:05:18;19.70;;;11.03;;
5277;SDS011;2662;51.194;6.614;2022-09-24T03:07:46;20.10;;;11.10;;
5277;SDS011;2662;51.194;6.614;2022-09-24T03:10:12;20.63;;;12.07;;
5277;SDS011;2662;51.194;6.614;2022-09-24T03:12:39;17.20;;;10.90;;
5277;SDS011;2662;51.194;6.614;2022-09-24T03:15:07;16.93;;;10.67;;
5277;SDS011;2662;51.194;6.614;2022-09-24T03:17:35;29.07;;;11.30;;
5277;SDS011;2662;51.194;6.614;2022-09-24T03:20:04;19.10;;;12.00;;
5277;SDS011;2662;51.194;6.614;2022-09-24T03:22:31;22.33;;;10.80;;
5277;SDS011;2662;51.194;6.614;2022-09-24T03:24:58;25.07;;;12.20;;
5277;SDS011;2662;51.194;6.614;2022-09-24T03:27:25;23.23;;;12.10;;
5277;SDS011;2662;51.194;6.614;2022-09-24T03:29:51;25.67;;;10.50;;
5277;SDS011;2662;51.194;6.614;2022-09-24T03:32:36;26.47;;;10.93;;
5277;SDS011;2662;51.194;6.614;2022-09-24T03:35:04;20.47;;;11.30;;
5277;SDS011;2662;51.194;6.614;2022-09-24T03:37:34;25.43;;;11.80;;
5277;SDS011;2662;51.194;6.614;2022-09-24T03:40:01;27.27;;;11.07;;
5277;SDS011;2662;51.194;6.614;2022-09-24T03:42:29;22.27;;;12.53;;
5277;SDS011;2662;51.194;6.614;2022-09-24T03:44:56;20.60;;;10.67;;
5277;SDS011;2662;51.194;6.614;2022-09-24T03:47:22;25.00;;;11.03;;
5277;SDS011;2662;51.194;6.614;2022-09-24T03:49:49;19.80;;;11.43;;
5277;SDS011;2662;51.194;6.614;2022-09-24T03:52:18;25.43;;;12.00;;
5277;SDS011;2662;51.194;6.614;2022-09-24T03:54:45;20.63;;;11.10;;
5277;SDS011;2662;51.194;6.614;2022-09-24T03:57:12;21.67;;;11.97;;
5277;SDS011;2662;51.194;6.614;2022-09-24T03:59:39;25.10;;;12.80;;
5277;SDS011;2662;51.194;6.614;2022-09-24T04:02:06;24.23;;;11.43;;
5277;SDS011;2662;51.194;6.614;2022-09-24T04:04:32;29.70;;;12.50;;
5277;SDS011;2662;51.194;6.614;2022-09-24T04:06:59;18.40;;;11.50;;
5277;SDS011;2662;51.194;6.614;2022-09-24T04:09:27;19.70;;;11.80;;
5277;SDS011;2662;51.194;6.614;2022-09-24T04:11:54;23.10;;;13.30;;
5277;SDS011;2662;51.194;6.614;2022-09-24T04:14:21;20.63;;;11.63;;
5277;SDS011;2662;51.194;6.614;2022-09-24T04:16:47;25.47;;;12.27;;
5277;SDS011;2662;51.194;6.614;2022-09-24T04:19:14;32.63;;;12.20;;
5277;SDS011;2662;51.194;6.614;2022-09-24T04:21:42;19.77;;;11.47;;
5277;SDS011;2662;51.194;6.614;2022-09-24T04:24:10;22.00;;;12.40;;
5277;SDS011;2662;51.194;6.614;2022-09-24T04:26:38;22.93;;;11.20;;
5277;SDS011;2662;51.194;6.614;2022-09-24T04:29:05;19.00;;;11.57;;
5277;SDS011;2662;51.194;6.614;2022-09-24T04:31:32;18.03;;;10.63;;
5277;SDS011;2662;51.194;6.614;2022-09-24T04:33:58;24.50;;;12.60;;
5277;SDS011;2662;51.194;6.614;2022-09-24T04:36:25;17.00;;;11.27;;
5277;SDS011;2662;51.194;6.614;2022-09-24T04:38:52;22.60;;;12.57;;
5277;SDS011;2662;51.194;6.614;2022-09-24T04:41:19;25.50;;;11.60;;
5277;SDS011;2662;51.194;6.614;2022-09-24T04:43:47;23.40;;;11.47;;
5277;SDS011;2662;51.194;6.614;2022-09-24T04:46:15;21.20;;;12.60;;
5277;SDS011;2662;51.194;6.614;2022-09-24T04:48:43;20.07;;;11.93;;
5277;SDS011;2662;51.194;6.614;2022-09-24T04:51:09;20.43;;;12.03;;
5277;SDS011;2662;51.194;6.614;2022-09-24T04:53:36;29.13;;;12.20;;
5277;SDS011;2662;51.194;6.614;2022-09-24T04:56:03;20.80;;;12.10;;
5277;SDS011;2662;51.194;6.614;2022-09-24T04:58:36;25.23;;;12.60;;
5277;SDS011;2662;51.194;6.614;2022-09-24T05:01:04;24.63;;;12.83;;
5277;SDS011;2662;51.194;6.614;2022-09-24T05:03:31;22.50;;;11.70;;
5277;SDS011;2662;51.194;6.614;2022-09-24T05:05:58;22.67;;;13.20;;
5277;SDS011;2662;51.194;6.614;2022-09-24T05:08:25;18.17;;;11.70;;
5277;SDS011;2662;51.194;6.614;2022-09-24T05:10:52;21.30;;;12.87;;
5277;SDS011;2662;51.194;6.614;2022-09-24T05:13:19;28.53;;;13.93;;
5277;SDS011;2662;51.194;6.614;2022-09-24T05:15:46;26.03;;;13.80;;
5277;SDS011;2662;51.194;6.614;2022-09-24T05:18:14;21.63;;;13.13;;
5277;SDS011;2662;51.194;6.614;2022-09-24T05:20:41;23.00;;;13.33;;
5277;SDS011;2662;51.194;6.614;2022-09-24T05:23:08;31.20;;;14.60;;
5277;SDS011;2662;51.194;6.614;2022-09-24T05:25:34;23.53;;;13.10;;
5277;SDS011;2662;51.194;6.614;2022-09-24T05:28:22;22.70;;;12.97;;
5277;SDS011;2662;51.194;6.614;2022-09-24T05:30:47;23.30;;;14.13;;
5277;SDS011;2662;51.194;6.614;2022-09-24T05:33:16;22.53;;;13.43;;
5277;SDS011;2662;51.194;6.614;2022-09-24T05:35:42;26.67;;;14.47;;
5277;SDS011;2662;51.194;6.614;2022-09-24T05:38:09;20.63;;;12.87;;
5277;SDS011;2662;51.194;6.614;2022-09-24T05:40:36;25.37;;;14.53;;
5277;SDS011;2662;51.194;6.614;2022-09-24T05:43:14;24.70;;;12.70;;
5277;SDS011;2662;51.194;6.614;2022-09-24T05:45:43;26.20;;;14.57;;
5277;SDS011;2662;51.194;6.614;2022-09-24T05:48:10;28.83;;;15.20;;
5277;SDS011;2662;51.194;6.614;2022-09-24T05:50:38;27.60;;;13.70;;
5277;SDS011;2662;51.194;6.614;2022-09-24T05:53:05;22.63;;;12.80;;
5277;SDS011;2662;51.194;6.614;2022-09-24T05:55:33;34.07;;;13.70;;
5277;SDS011;2662;51.194;6.614;2022-09-24T05:58:01;32.30;;;14.10;;
5277;SDS011;2662;51.194;6.614;2022-09-24T06:00:28;25.27;;;13.53;;
5277;SDS011;2662;51.194;6.614;2022-09-24T06:02:59;21.33;;;13.23;;
5277;SDS011;2662;51.194;6.614;2022-09-24T06:05:28;25.03;;;13.07;;
5277;SDS011;2662;51.194;6.614;2022-09-24T06:07:56;30.17;;;13.97;;
5277;SDS011;2662;51.194;6.614;2022-09-24T06:10:22;24.40;;;13.30;;
5277;SDS011;2662;51.194;6.614;2022-09-24T06:12:50;25.90;;;14.30;;
5277;SDS011;2662;51.194;6.614;2022-09-24T06:15:18;25.47;;;14.10;;
5277;SDS011;2662;51.194;6.614;2022-09-24T06:17:45;20.63;;;12.90;;
5277;SDS011;2662;51.194;6.614;2022-09-24T06:20:11;20.17;;;12.80;;
5277;SDS011;2662;51.194;6.614;2022-09-24T06:22:39;28.73;;;13.33;;
5277;SDS011;2662;51.194;6.614;2022-09-24T06:25:08;26.20;;;13.90;;
5277;SDS011;2662;51.194;6.614;2022-09-24T06:27:35;23.13;;;12.80;;
5277;SDS011;2662;51.194;6.614;2022-09-24T06:30:01;24.23;;;12.27;;
5277;SDS011;2662;51.194;6.614;2022-09-24T06:32:29;24.63;;;12.80;;
5277;SDS011;2662;51.194;6.614;2022-09-24T06:34:56;21.90;;;12.23;;
5277;SDS011;2662;51.194;6.614;2022-09-24T06:37:23;17.70;;;11.60;;
5277;SDS011;2662;51.194;6.614;2022-09-24T06:39:49;23.10;;;12.43;;
5277;SDS011;2662;51.194;6.614;2022-09-24T06:42:17;22.10;;;12.10;;
5277;SDS011;2662;51.194;6.614;2022-09-24T06:44:44;21.33;;;11.47;;
5277;SDS011;2662;51.194;6.614;2022-09-24T06:47:12;22.63;;;12.03;;
5277;SDS011;2662;51.194;6.614;2022-09-24T06:49:39;17.73;;;11.60;;
5277;SDS011;2662;51.194;6.614;2022-09-24T06:52:05;20.87;;;13.00;;
5277;SDS011;2662;51.194;6.614;2022-09-24T06:54:32;21.33;;;11.90;;
5277;SDS011;2662;51.194;6.614;2022-09-24T06:56:59;20.30;;;12.60;;
5277;SDS011;2662;51.194;6.614;2022-09-24T06:59:27;20.83;;;12.87;;
5277;SDS011;2662;51.194;6.614;2022-09-24T07:01:54;19.33;;;12.60;;
5277;SDS011;2662;51.194;6.614;2022-09-24T07:04:20;19.47;;;11.80;;
5277;SDS011;2662;51.194;6.614;2022-09-24T07:06:47;23.27;;;12.53;;
5277;SDS011;2662;51.194;6.614;2022-09-24T07:09:31;21.07;;;12.13;;
5277;SDS011;2662;51.194;6.614;2022-09-24T07:11:58;17.20;;;12.20;;
5277;SDS011;2662;51.194;6.614;2022-09-24T07:14:30;30.13;;;12.47;;
5277;SDS011;2662;51.194;6.614;2022-09-24T07:16:57;25.70;;;12.50;;
5277;SDS011;2662;51.194;6.614;2022-09-24T07:19:24;20.00;;;12.00;;
5277;SDS011;2662;51.194;6.614;2022-09-24T07:21:50;22.27;;;13.30;;
5277;SDS011;2662;51.194;6.614;2022-09-24T07:24:17;21.43;;;13.50;;
5277;SDS011;2662;51.194;6.614;2022-09-24T07:26:44;26.80;;;13.10;;
5277;SDS011;2662;51.194;6.614;2022-09-24T07:29:10;20.93;;;12.40;;
5277;SDS011;2662;51.194;6.614;2022-09-24T07:31:38;21.27;;;12.10;;
5277;SDS011;2662;51.194;6.614;2022-09-24T07:34:05;22.73;;;12.80;;
5277;SDS011;2662;51.194;6.614;2022-09-24T07:36:33;33.33;;;12.57;;
5277;SDS011;2662;51.194;6.614;2022-09-24T07:38:59;24.90;;;12.53;;
5277;SDS011;2662;51.194;6.614;2022-09-24T07:41:32;24.37;;;12.57;;
5277;SDS011;2662;51.194;6.614;2022-09-24T07:43:59;25.23;;;13.97;;
5277;SDS011;2662;51.194;6.614;2022-09-24T07:46:26;18.53;;;12.40;;
5277;SDS011;2662;51.194;6.614;2022-09-24T07:48:55;30.50;;;13.00;;
5277;SDS011;2662;51.194;6.614;2022-09-24T07:51:21;23.83;;;12.50;;
5277;SDS011;2662;51.194;6.614;2022-09-24T07:53:50;23.20;;;13.50;;
5277;SDS011;2662;51.194;6.614;2022-09-24T07:56:16;21.23;;;12.87;;
5277;SDS011;2662;51.194;6.614;2022-09-24T07:58:43;18.03;;;11.73;;
5277;SDS011;2662;51.194;6.614;2022-09-24T08:01:10;26.53;;;12.20;;
5277;SDS011;2662;51.194;6.614;2022-09-24T08:03:38;21.93;;;12.73;;
5277;SDS011;2662;51.194;6.614;2022-09-24T08:06:06;23.10;;;12.43;;
5277;SDS011;2662;51.194;6.614;2022-09-24T08:08:33;20.97;;;12.37;;
5277;SDS011;2662;51.194;6.614;2022-09-24T08:11:01;23.20;;;12.70;;
5277;SDS011;2662;51.194;6.614;2022-09-24T08:13:28;22.07;;;12.70;;
5277;SDS011;2662;51.194;6.614;2022-09-24T08:15:55;21.57;;;13.23;;
5277;SDS011;2662;51.194;6.614;2022-09-24T08:18:23;24.13;;;12.93;;
5277;SDS011;2662;51.194;6.614;2022-09-24T08:20:50;29.83;;;13.20;;
5277;SDS011;2662;51.194;6.614;2022-09-24T08:23:18;24.53;;;13.07;;
5277;SDS011;2662;51.194;6.614;2022-09-24T08:25:45;27.60;;;12.70;;
5277;SDS011;2662;51.194;6.614;2022-09-24T08:28:12;23.50;;;11.80;;
5277;SDS011;2662;51.194;6.614;2022-09-24T08:30:41;21.70;;;12.20;;
5277;SDS011;2662;51.194;6.614;2022-09-24T08:33:08;23.50;;;12.67;;
5277;SDS011;2662;51.194;6.614;2022-09-24T08:35:35;33.03;;;13.00;;
5277;SDS011;2662;51.194;6.614;2022-09-24T08:38:04;25.07;;;14.00;;
5277;SDS011;2662;51.194;6.614;2022-09-24T08:40:35;20.27;;;12.83;;
5277;SDS011;2662;51.194;6.614;2022-09-24T08:43:04;21.30;;;13.50;;
5277;SDS011;2662;51.194;6.614;2022-09-24T08:45:39;23.93;;;12.97;;
5277;SDS011;2662;51.194;6.614;2022-09-24T08:48:26;21.10;;;11.27;;
5277;SDS011;2662;51.194;6.614;2022-09-24T08:50:57;19.30;;;12.20;;
5277;SDS011;2662;51.194;6.614;2022-09-24T08:53:29;20.77;;;13.20;;
5277;SDS011;2662;51.194;6.614;2022-09-24T08:56:06;25.27;;;13.63;;
5277;SDS011;2662;51.194;6.614;2022-09-24T08:58:36;17.70;;;11.23;;
5277;SDS011;2662;51.194;6.614;2022-09-24T09:01:12;19.10;;;11.90;;
5277;SDS011;2662;51.194;6.614;2022-09-24T09:03:45;22.80;;;12.67;;
5277;SDS011;2662;51.194;6.614;2022-09-24T09:06:23;22.07;;;12.10;;
5277;SDS011;2662;51.194;6.614;2022-09-24T09:09:08;22.70;;;12.60;;
5277;SDS011;2662;51.194;6.614;2022-09-24T09:11:39;19.53;;;12.97;;
5277;SDS011;2662;51.194;6.614;2022-09-24T09:14:11;26.60;;;13.70;;
5277;SDS011;2662;51.194;6.614;2022-09-24T09:16:43;24.80;;;12.43;;
5277;SDS011;2662;51.194;6.614;2022-09-24T09:19:15;21.50;;;12.07;;
5277;SDS011;2662;51.194;6.614;2022-09-24T09:21:45;20.97;;;11.23;;
5277;SDS011;2662;51.194;6.614;2022-09-24T09:24:19;21.47;;;12.40;;
5277;SDS011;2662;51.194;6.614;2022-09-24T09:26:52;23.37;;;13.57;;
5277;SDS011;2662;51.194;6.614;2022-09-24T09:29:21;25.03;;;12.70;;
5277;SDS011;2662;51.194;6.614;2022-09-24T09:31:52;20.87;;;12.10;;
5277;SDS011;2662;51.194;6.614;2022-09-24T09:34:33;21.20;;;11.47;;
5277;SDS011;2662;51.194;6.614;2022-09-24T09:37:11;21.20;;;11.37;;
5277;SDS011;2662;51.194;6.614;2022-09-24T09:39:47;21.20;;;11.60;;
5277;SDS011;2662;51.194;6.614;2022-09-24T09:42:27;20.17;;;11.40;;
5277;SDS011;2662;51.194;6.614;2022-09-24T09:44:58;19.27;;;11.80;;
5277;SDS011;2662;51.194;6.614;2022-09-24T09:47:28;18.00;;;11.23;;
5277;SDS011;2662;51.194;6.614;2022-09-24T09:50:05;20.43;;;10.80;;
5277;SDS011;2662;51.194;6.614;2022-09-24T09:52:38;16.70;;;9.23;;
5277;SDS011;2662;51.194;6.614;2022-09-24T09:55:06;13.83;;;8.87;;
5277;SDS011;2662;51.194;6.614;2022-09-24T09:57:34;13.37;;;8.50;;
5277;SDS011;2662;51.194;6.614;2022-09-24T10:00:03;17.37;;;9.27;;
5277;SDS011;2662;51.194;6.614;2022-09-24T10:02:31;13.57;;;9.10;;
5277;SDS011;2662;51.194;6.614;2022-09-24T10:05:00;16.90;;;9.27;;
5277;SDS011;2662;51.194;6.614;2022-09-24T10:07:27;13.10;;;7.90;;
5277;SDS011;2662;51.194;6.614;2022-09-24T10:10:00;12.87;;;7.90;;
5277;SDS011;2662;51.194;6.614;2022-09-24T10:12:28;10.87;;;7.00;;
5277;SDS011;2662;51.194;6.614;2022-09-24T10:14:57;18.50;;;10.37;;
5277;SDS011;2662;51.194;6.614;2022-09-24T10:17:27;18.50;;;10.20;;
5277;SDS011;2662;51.194;6.614;2022-09-24T10:19:56;16.33;;;11.10;;
5277;SDS011;2662;51.194;6.614;2022-09-24T10:22:26;15.00;;;10.27;;
5277;SDS011;2662;51.194;6.614;2022-09-24T10:24:55;16.27;;;10.20;;
5277;SDS011;2662;51.194;6.614;2022-09-24T10:27:28;16.03;;;10.10;;
5277;SDS011;2662;51.194;6.614;2022-09-24T10:29:59;19.90;;;10.60;;
5277;SDS011;2662;51.194;6.614;2022-09-24T10:32:45;16.03;;;10.70;;
5277;SDS011;2662;51.194;6.614;2022-09-24T10:35:19;19.80;;;10.47;;
5277;SDS011;2662;51.194;6.614;2022-09-24T10:37:50;16.37;;;11.00;;
5277;SDS011;2662;51.194;6.614;2022-09-24T10:40:19;17.70;;;10.70;;
5277;SDS011;2662;51.194;6.614;2022-09-24T10:42:57;15.50;;;9.67;;
5277;SDS011;2662;51.194;6.614;2022-09-24T10:45:30;16.60;;;9.97;;
5277;SDS011;2662;51.194;6.614;2022-09-24T10:48:06;14.77;;;9.80;;
5277;SDS011;2662;51.194;6.614;2022-09-24T10:50:40;15.07;;;9.60;;
5277;SDS011;2662;51.194;6.614;2022-09-24T10:53:16;22.30;;;10.00;;
5277;SDS011;2662;51.194;6.614;2022-09-24T10:55:52;14.93;;;9.37;;
5277;SDS011;2662;51.194;6.614;2022-09-24T10:58:36;16.13;;;9.70;;
5277;SDS011;2662;51.194;6.614;2022-09-24T11:01:17;16.23;;;9.63;;
5277;SDS011;2662;51.194;6.614;2022-09-24T11:04:00;16.40;;;10.27;;
5277;SDS011;2662;51.194;6.614;2022-09-24T11:06:45;18.83;;;11.03;;
5277;SDS011;2662;51.194;6.614;2022-09-24T11:09:22;17.43;;;10.90;;
5277;SDS011;2662;51.194;6.614;2022-09-24T11:11:56;17.67;;;11.20;;
5277;SDS011;2662;51.194;6.614;2022-09-24T11:17:28;19.90;;;11.40;;
5277;SDS011;2662;51.194;6.614;2022-09-24T11:20:02;17.30;;;11.10;;
5277;SDS011;2662;51.194;6.614;2022-09-24T11:22:42;17.73;;;11.10;;
5277;SDS011;2662;51.194;6.614;2022-09-24T11:25:25;17.47;;;10.97;;
5277;SDS011;2662;51.194;6.614;2022-09-24T11:28:01;18.00;;;11.20;;
5277;SDS011;2662;51.194;6.614;2022-09-24T11:30:35;18.07;;;11.60;;
5277;SDS011;2662;51.194;6.614;2022-09-24T11:33:16;19.90;;;11.33;;
5277;SDS011;2662;51.194;6.614;2022-09-24T11:35:57;22.70;;;11.53;;
5277;SDS011;2662;51.194;6.614;2022-09-24T11:38:42;16.17;;;10.30;;
5277;SDS011;2662;51.194;6.614;2022-09-24T11:41:22;20.57;;;11.83;;
5277;SDS011;2662;51.194;6.614;2022-09-24T11:47:06;18.43;;;10.00;;
5277;SDS011;2662;51.194;6.614;2022-09-24T11:49:46;25.03;;;11.30;;
5277;SDS011;2662;51.194;6.614;2022-09-24T11:52:23;18.60;;;10.80;;
5277;SDS011;2662;51.194;6.614;2022-09-24T11:54:58;16.97;;;10.70;;
5277;SDS011;2662;51.194;6.614;2022-09-24T11:57:31;21.90;;;11.43;;
5277;SDS011;2662;51.194;6.614;2022-09-24T12:00:02;15.73;;;9.90;;
5277;SDS011;2662;51.194;6.614;2022-09-24T12:02:33;16.13;;;10.87;;
5277;SDS011;2662;51.194;6.614;2022-09-24T12:05:06;17.17;;;10.33;;
5277;SDS011;2662;51.194;6.614;2022-09-24T12:07:42;17.10;;;11.23;;
5277;SDS011;2662;51.194;6.614;2022-09-24T12:10:21;15.67;;;9.80;;
5277;SDS011;2662;51.194;6.614;2022-09-24T12:12:56;16.73;;;10.27;;
5277;SDS011;2662;51.194;6.614;2022-09-24T12:15:29;18.07;;;10.57;;
5277;SDS011;2662;51.194;6.614;2022-09-24T12:18:05;14.83;;;10.10;;
5277;SDS011;2662;51.194;6.614;2022-09-24T12:20:40;14.87;;;10.00;;
5277;SDS011;2662;51.194;6.614;2022-09-24T12:23:12;18.50;;;10.70;;
5277;SDS011;2662;51.194;6.614;2022-09-24T12:25:43;19.80;;;10.77;;
5277;SDS011;2662;51.194;6.614;2022-09-24T12:28:12;16.10;;;10.53;;
5277;SDS011;2662;51.194;6.614;2022-09-24T12:31:03;21.93;;;10.10;;
5277;SDS011;2662;51.194;6.614;2022-09-24T12:33:54;22.00;;;10.60;;
5277;SDS011;2662;51.194;6.614;2022-09-24T12:36:30;21.03;;;12.10;;
5277;SDS011;2662;51.194;6.614;2022-09-24T12:39:08;17.77;;;10.83;;
5277;SDS011;2662;51.194;6.614;2022-09-24T12:41:37;25.60;;;11.70;;
5277;SDS011;2662;51.194;6.614;2022-09-24T12:44:10;14.60;;;10.60;;
5277;SDS011;2662;51.194;6.614;2022-09-24T12:46:43;17.97;;;10.13;;
5277;SDS011;2662;51.194;6.614;2022-09-24T12:49:16;19.73;;;10.87;;
5277;SDS011;2662;51.194;6.614;2022-09-24T12:51:50;17.90;;;11.00;;
5277;SDS011;2662;51.194;6.614;2022-09-24T12:54:21;18.63;;;10.20;;
5277;SDS011;2662;51.194;6.614;2022-09-24T12:56:50;17.00;;;10.93;;
5277;SDS011;2662;51.194;6.614;2022-09-24T12:59:24;19.10;;;10.70;;
5277;SDS011;2662;51.194;6.614;2022-09-24T13:01:52;18.67;;;10.23;;
5277;SDS011;2662;51.194;6.614;2022-09-24T13:04:25;17.43;;;10.90;;
5277;SDS011;2662;51.194;6.614;2022-09-24T13:06:55;23.93;;;11.23;;
5277;SDS011;2662;51.194;6.614;2022-09-24T13:12:17;24.13;;;11.60;;
5277;SDS011;2662;51.194;6.614;2022-09-24T13:14:49;19.57;;;9.90;;
5277;SDS011;2662;51.194;6.614;2022-09-24T13:17:21;19.10;;;11.00;;
5277;SDS011;2662;51.194;6.614;2022-09-24T13:19:48;19.30;;;11.77;;
5277;SDS011;2662;51.194;6.614;2022-09-24T13:22:25;16.10;;;10.70;;
5277;SDS011;2662;51.194;6.614;2022-09-24T13:25:03;19.27;;;10.80;;
5277;SDS011;2662;51.194;6.614;2022-09-24T13:27:53;23.80;;;11.83;;
5277;SDS011;2662;51.194;6.614;2022-09-24T13:30:25;22.10;;;12.03;;
5277;SDS011;2662;51.194;6.614;2022-09-24T13:33:00;23.70;;;12.37;;
5277;SDS011;2662;51.194;6.614;2022-09-24T13:35:38;17.63;;;11.00;;
5277;SDS011;2662;51.194;6.614;2022-09-24T13:38:14;27.73;;;11.30;;
5277;SDS011;2662;51.194;6.614;2022-09-24T13:40:47;18.80;;;11.10;;
5277;SDS011;2662;51.194;6.614;2022-09-24T13:43:23;17.87;;;11.13;;
5277;SDS011;2662;51.194;6.614;2022-09-24T13:46:00;17.60;;;11.40;;
5277;SDS011;2662;51.194;6.614;2022-09-24T13:48:33;24.10;;;11.17;;
5277;SDS011;2662;51.194;6.614;2022-09-24T13:51:02;20.47;;;10.07;;
5277;SDS011;2662;51.194;6.614;2022-09-24T13:53:34;15.07;;;10.40;;
5277;SDS011;2662;51.194;6.614;2022-09-24T13:56:05;21.23;;;12.07;;
5277;SDS011;2662;51.194;6.614;2022-09-24T13:58:38;17.97;;;10.10;;
5277;SDS011;2662;51.194;6.614;2022-09-24T14:01:09;16.00;;;10.97;;
5277;SDS011;2662;51.194;6.614;2022-09-24T14:03:37;22.80;;;11.10;;
5277;SDS011;2662;51.194;6.614;2022-09-24T14:06:08;18.53;;;11.43;;
5277;SDS011;2662;51.194;6.614;2022-09-24T14:08:40;21.03;;;11.70;;
5277;SDS011;2662;51.194;6.614;2022-09-24T14:11:12;19.30;;;11.17;;
5277;SDS011;2662;51.194;6.614;2022-09-24T14:13:41;25.20;;;11.80;;
5277;SDS011;2662;51.194;6.614;2022-09-24T14:16:11;18.20;;;10.90;;
5277;SDS011;2662;51.194;6.614;2022-09-24T14:18:40;16.37;;;11.03;;
5277;SDS011;2662;51.194;6.614;2022-09-24T14:21:07;17.10;;;10.47;;
5277;SDS011;2662;51.194;6.614;2022-09-24T14:23:41;15.87;;;10.87;;
5277;SDS011;2662;51.194;6.614;2022-09-24T14:26:14;20.63;;;10.27;;
5277;SDS011;2662;51.194;6.614;2022-09-24T14:28:50;16.93;;;10.63;;
5277;SDS011;2662;51.194;6.614;2022-09-24T14:31:17;18.17;;;11.10;;
5277;SDS011;2662;51.194;6.614;2022-09-24T14:33:44;15.83;;;10.80;;
5277;SDS011;2662;51.194;6.614;2022-09-24T14:36:11;21.83;;;11.13;;
5277;SDS011;2662;51.194;6.614;2022-09-24T14:38:45;17.60;;;11.40;;
5277;SDS011;2662;51.194;6.614;2022-09-24T14:41:17;18.60;;;11.00;;
5277;SDS011;2662;51.194;6.614;2022-09-24T14:43:47;18.10;;;11.23;;
5277;SDS011;2662;51.194;6.614;2022-09-24T14:46:20;14.03;;;9.57;;
5277;SDS011;2662;51.194;6.614;2022-09-24T14:48:48;13.70;;;8.20;;
5277;SDS011;2662;51.194;6.614;2022-09-24T14:51:20;11.70;;;7.87;;
5277;SDS011;2662;51.194;6.614;2022-09-24T14:53:57;12.83;;;8.70;;
5277;SDS011;2662;51.194;6.614;2022-09-24T14:56:26;16.70;;;9.20;;
5277;SDS011;2662;51.194;6.614;2022-09-24T14:58:54;13.07;;;9.03;;
5277;SDS011;2662;51.194;6.614;2022-09-24T15:01:22;15.30;;;9.03;;
5277;SDS011;2662;51.194;6.614;2022-09-24T15:03:54;11.10;;;8.03;;
5277;SDS011;2662;51.194;6.614;2022-09-24T15:06:24;13.53;;;8.57;;
5277;SDS011;2662;51.194;6.614;2022-09-24T15:08:54;20.13;;;9.30;;
5277;SDS011;2662;51.194;6.614;2022-09-24T15:11:25;14.57;;;8.57;;
5277;SDS011;2662;51.194;6.614;2022-09-24T15:13:58;15.60;;;10.17;;
5277;SDS011;2662;51.194;6.614;2022-09-24T15:16:27;17.87;;;9.50;;
5277;SDS011;2662;51.194;6.614;2022-09-24T15:18:57;12.80;;;9.20;;
5277;SDS011;2662;51.194;6.614;2022-09-24T15:21:38;18.40;;;10.20;;